Time;durP1;ratioP1;P1;durP2;ratioP2;P2;SDS_P1;SDS_P2;PMS_P1;PMS_P2;Temp;Humidity;BMP_temperature;BMP_pressure;BME280_temperature;BME280_humidity;BME280_pressure;Samples;Min_cycle;Max_cycle;Signal;HPM_P1;HPM_P2
2022/03/13 00:00:54;;;;;;;0.20;0.20;;;;;;;0.99;50.16;101480.25;5047561;28;20052;-84
2022/03/13 00:03:28;;;;;;;0.20;0.20;;;;;;;0.90;50.96;101484.94;5046945;28;20049;-85
2022/03/13 00:06:01;;;;;;;0.10;0.10;;;;;;;0.92;50.27;101471.34;5036804;28;20053;-84
2022/03/13 00:08:32;;;;;;;0.10;0.10;;;;;;;0.98;50.27;101466.03;5051164;28;20513;-86
2022/03/13 00:11:07;;;;;;;0.20;0.20;;;;;;;0.91;50.51;101465.19;5050094;28;20064;-84
2022/03/13 00:13:51;;;;;;;0.10;0.10;;;;;;;0.90;50.87;101468.03;5036973;28;20037;-85
2022/03/13 00:16:25;;;;;;;0.20;0.20;;;;;;;0.90;50.55;101471.56;5049601;28;20049;-85
2022/03/13 00:18:59;;;;;;;0.20;0.20;;;;;;;0.81;51.18;101460.13;5040483;28;20659;-84
2022/03/13 00:21:34;;;;;;;0.20;0.20;;;;;;;0.80;51.90;101461.19;5045626;28;20425;-84
2022/03/13 00:24:08;;;;;;;0.10;0.10;;;;;;;0.78;52.27;101457.03;5048476;28;20049;-84
2022/03/13 00:26:42;;;;;;;0.20;0.20;;;;;;;0.75;51.98;101452.91;5038388;28;20072;-83
2022/03/13 00:29:15;;;;;;;0.20;0.20;;;;;;;0.74;52.11;101461.13;5043975;28;20042;-84
2022/03/13 00:31:48;;;;;;;0.10;0.10;;;;;;;0.72;53.16;101474.72;5036432;28;20060;-85
2022/03/13 00:34:21;;;;;;;0.10;0.10;;;;;;;0.47;53.90;101444.84;5050136;28;20056;-84
2022/03/13 00:36:55;;;;;;;0.20;0.20;;;;;;;0.54;53.64;101467.16;5049101;28;20049;-84
2022/03/13 00:39:28;;;;;;;0.20;0.20;;;;;;;0.52;53.33;101466.53;5045159;28;20583;-84
2022/03/13 00:42:03;;;;;;;0.63;0.30;;;;;;;0.55;53.39;101463.44;5036642;28;20045;-85
2022/03/13 00:44:36;;;;;;;0.20;0.20;;;;;;;0.53;53.29;101464.69;5038468;28;20041;-84
2022/03/13 00:47:09;;;;;;;0.20;0.20;;;;;;;0.50;54.24;101461.34;5038878;28;20053;-84
2022/03/13 00:49:42;;;;;;;0.20;0.20;;;;;;;0.45;54.71;101460.28;5051142;28;20482;-85
2022/03/13 00:52:17;;;;;;;0.15;0.15;;;;;;;0.39;55.57;101463.72;5038884;28;20047;-85
2022/03/13 00:54:45;;;;;;;0.20;0.20;;;;;;;0.16;56.31;101438.81;5033631;28;20053;-84
2022/03/13 00:57:19;;;;;;;0.20;0.20;;;;;;;0.30;56.78;101458.53;5041513;28;20045;-85
2022/03/13 00:59:47;;;;;;;0.20;0.20;;;;;;;0.26;57.06;101451.91;5052026;28;20044;-85
2022/03/13 01:02:21;;;;;;;0.20;0.20;;;;;;;0.32;56.86;101455.66;5047730;28;20054;-85
2022/03/13 01:04:54;;;;;;;0.20;0.20;;;;;;;0.37;56.56;101461.25;5057076;28;20500;-84
2022/03/13 01:07:22;;;;;;;0.20;0.20;;;;;;;0.35;57.17;101460.63;5058655;28;20041;-84
2022/03/13 01:09:56;;;;;;;0.20;0.20;;;;;;;0.37;57.46;101453.19;5042092;28;20386;-83
2022/03/13 01:12:30;;;;;;;0.20;0.20;;;;;;;0.36;58.21;101448.03;5039015;28;20057;-84
2022/03/13 01:15:05;;;;;;;0.20;0.20;;;;;;;0.34;57.31;101433.00;5043371;28;20041;-84
2022/03/13 01:17:38;;;;;;;0.20;0.20;;;;;;;0.29;58.78;101448.84;5059009;28;20483;-83
2022/03/13 01:20:15;;;;;;;0.20;0.20;;;;;;;0.23;58.98;101435.38;5054461;28;20425;-83
2022/03/13 01:22:49;;;;;;;0.20;0.20;;;;;;;0.16;60.54;101433.47;5036060;28;20041;-84
2022/03/13 01:25:25;;;;;;;0.20;0.20;;;;;;;0.12;61.21;101432.19;5037023;28;20056;-82
2022/03/13 01:27:55;;;;;;;0.20;0.20;;;;;;;0.11;61.18;101435.06;5041365;28;20064;-82
2022/03/13 01:30:29;;;;;;;0.17;0.17;;;;;;;0.15;62.16;101439.00;5049977;28;20477;-83
2022/03/13 01:33:03;;;;;;;0.20;0.20;;;;;;;0.16;62.15;101438.81;5048084;28;20056;-84
2022/03/13 01:35:36;;;;;;;0.28;0.28;;;;;;;0.12;60.61;101437.53;5033712;28;20528;-83
2022/03/13 01:38:09;;;;;;;0.20;0.20;;;;;;;0.05;62.45;101427.81;5040624;28;20076;-83
2022/03/13 01:40:37;;;;;;;0.20;0.20;;;;;;;-0.05;62.68;101418.25;5055940;28;20389;-82
2022/03/13 01:43:12;;;;;;;0.30;0.30;;;;;;;0.00;61.22;101423.03;5044973;28;20049;-85
2022/03/13 01:45:40;;;;;;;0.20;0.20;;;;;;;0.01;62.19;101427.34;5058404;28;20049;-83
2022/03/13 01:48:08;;;;;;;0.20;0.20;;;;;;;-0.11;63.88;101421.69;5042316;28;20057;-84
2022/03/13 01:50:41;;;;;;;0.10;0.10;;;;;;;-0.07;63.52;101419.44;5032813;28;20414;-84
2022/03/13 01:53:09;;;;;;;0.20;0.20;;;;;;;-0.07;63.58;101417.63;5044919;28;20513;-83
2022/03/13 01:55:43;;;;;;;0.20;0.20;;;;;;;-0.13;64.55;101421.03;5040129;28;20056;-84
2022/03/13 01:58:12;;;;;;;0.20;0.20;;;;;;;-0.11;64.38;101423.53;5041311;28;20068;-84
2022/03/13 02:00:46;;;;;;;0.20;0.20;;;;;;;-0.21;65.11;101413.13;5047170;28;20049;-84
2022/03/13 02:03:19;;;;;;;0.20;0.20;;;;;;;-0.25;67.74;101406.50;5049775;28;20053;-85
2022/03/13 02:05:52;;;;;;;0.10;0.10;;;;;;;-0.27;65.95;101413.91;5047741;28;20067;-85
2022/03/13 02:08:25;;;;;;;0.20;0.20;;;;;;;-0.30;66.92;101406.25;5040828;28;20058;-83
2022/03/13 02:10:53;;;;;;;0.20;0.20;;;;;;;-0.31;68.29;101412.63;5046262;28;20490;-83
2022/03/13 02:13:22;;;;;;;0.47;0.20;;;;;;;-0.31;68.70;101407.28;5037461;28;20056;-83
2022/03/13 02:15:56;;;;;;;0.20;0.20;;;;;;;-0.40;67.86;101406.56;5038072;28;20395;-84
2022/03/13 02:18:29;;;;;;;0.20;0.20;;;;;;;-0.41;68.02;101399.56;5051815;28;20049;-84
2022/03/13 02:21:02;;;;;;;0.10;0.10;;;;;;;-0.48;69.15;101398.63;5067678;28;20049;-84
2022/03/13 02:23:38;;;;;;;0.10;0.10;;;;;;;-0.50;67.90;101395.34;5056060;28;20052;-83
2022/03/13 02:26:11;;;;;;;0.22;0.22;;;;;;;-0.42;68.04;101411.28;5034529;28;20057;-83
2022/03/13 02:28:51;;;;;;;0.20;0.20;;;;;;;-0.48;68.54;101399.50;5049590;28;20478;-83
2022/03/13 02:31:28;;;;;;;0.20;0.20;;;;;;;-0.50;69.56;101406.03;5052710;28;20048;-84
2022/03/13 02:34:01;;;;;;;0.20;0.20;;;;;;;-0.62;70.67;101406.53;5039535;28;20041;-83
2022/03/13 02:36:54;;;;;;;0.20;0.20;;;;;;;-0.60;69.91;101404.50;5049442;28;20427;-84
2022/03/13 02:39:32;;;;;;;0.20;0.20;;;;;;;-0.63;70.76;101404.88;5042473;28;20060;-83
2022/03/13 02:42:01;;;;;;;0.30;0.30;;;;;;;-0.67;70.70;101411.59;5045688;28;20052;-84
2022/03/13 02:44:35;;;;;;;0.20;0.20;;;;;;;-0.73;70.43;101407.84;5038098;28;20056;-84
2022/03/13 02:47:09;;;;;;;0.20;0.20;;;;;;;-0.87;73.46;101404.16;5036271;28;20049;-84
2022/03/13 02:49:37;;;;;;;0.20;0.20;;;;;;;-0.80;73.79;101414.09;5033221;28;20046;-85
2022/03/13 02:52:11;;;;;;;0.25;0.25;;;;;;;-0.80;75.25;101409.59;5033187;28;20045;-83
2022/03/13 02:54:45;;;;;;;0.10;0.10;;;;;;;-0.81;71.50;101412.47;5041492;28;20037;-84
2022/03/13 02:57:18;;;;;;;0.20;0.20;;;;;;;-0.86;71.97;101415.69;5041642;28;20053;-83
2022/03/13 02:59:52;;;;;;;0.20;0.20;;;;;;;-0.93;72.63;101414.78;5037343;28;20046;-84
2022/03/13 03:02:25;;;;;;;0.20;0.20;;;;;;;-0.92;77.44;101417.25;5035729;28;20409;-84
2022/03/13 03:05:04;;;;;;;0.20;0.20;;;;;;;-0.98;74.83;101414.50;5034377;28;20707;-84
2022/03/13 03:07:38;;;;;;;0.20;0.20;;;;;;;-0.99;73.61;101421.69;5058322;28;20421;-84
2022/03/13 03:10:13;;;;;;;0.20;0.20;;;;;;;-1.05;74.46;101414.41;5033877;28;20072;-84
2022/03/13 03:12:46;;;;;;;0.20;0.20;;;;;;;-1.08;77.66;101418.28;5051653;28;20048;-83
2022/03/13 03:15:19;;;;;;;0.20;0.20;;;;;;;-1.16;77.41;101410.38;5032367;28;20049;-84
2022/03/13 03:17:53;;;;;;;0.20;0.20;;;;;;;-1.13;74.24;101406.47;5031753;28;20046;-84
2022/03/13 03:20:26;;;;;;;0.20;0.20;;;;;;;-1.10;75.64;101414.97;5030348;28;20061;-83
2022/03/13 03:22:59;;;;;;;0.20;0.20;;;;;;;-1.09;74.43;101419.28;5032248;28;20715;-84
2022/03/13 03:25:33;;;;;;;0.22;0.22;;;;;;;-1.15;74.01;101412.00;5030490;28;20050;-83
2022/03/13 03:28:08;;;;;;;0.30;0.30;;;;;;;-1.07;75.30;101417.25;5030645;28;20057;-83
2022/03/13 03:30:41;;;;;;;0.20;0.20;;;;;;;-1.05;71.76;101403.72;5033902;28;20050;-84
2022/03/13 03:33:14;;;;;;;0.20;0.20;;;;;;;-1.04;71.83;101400.88;5051205;28;20041;-84
2022/03/13 03:35:42;;;;;;;0.20;0.20;;;;;;;-1.04;71.62;101410.72;5052024;28;20048;-84
2022/03/13 03:38:11;;;;;;;0.20;0.20;;;;;;;-1.03;73.41;101405.19;5053565;28;20493;-84
2022/03/13 03:40:40;;;;;;;0.20;0.20;;;;;;;-1.06;71.01;101408.22;5054648;28;20045;-83
2022/03/13 03:43:08;;;;;;;0.20;0.20;;;;;;;-1.08;71.06;101396.06;5054838;28;20060;-82
2022/03/13 03:45:41;;;;;;;0.20;0.20;;;;;;;-0.98;66.70;101396.63;5038379;28;20053;-84
2022/03/13 03:48:14;;;;;;;0.20;0.20;;;;;;;-0.95;67.28;101400.75;5051098;28;20052;-83
2022/03/13 03:50:47;;;;;;;0.20;0.20;;;;;;;-0.99;67.73;101397.63;5036209;28;20516;-84
2022/03/13 03:53:20;;;;;;;0.20;0.20;;;;;;;-1.07;69.89;101409.25;5035658;28;20049;-84
2022/03/13 03:55:57;;;;;;;0.15;0.15;;;;;;;-1.15;71.93;101406.66;5034026;28;20512;-84
2022/03/13 03:58:25;;;;;;;0.20;0.20;;;;;;;-1.22;72.20;101401.22;5035084;28;20486;-83
2022/03/13 04:00:58;;;;;;;0.20;0.20;;;;;;;-1.16;72.48;101407.69;5053066;28;20045;-85
2022/03/13 04:03:31;;;;;;;0.20;0.20;;;;;;;-1.12;68.01;101414.31;5043950;28;20061;-84
2022/03/13 04:05:59;;;;;;;0.20;0.20;;;;;;;-1.10;67.64;101412.28;5039324;28;20053;-84
2022/03/13 04:08:33;;;;;;;0.20;0.20;;;;;;;-1.10;66.85;101414.13;5042744;28;20049;-83
2022/03/13 04:11:08;;;;;;;0.10;0.10;;;;;;;-1.22;70.47;101408.41;5033869;28;20064;-84
2022/03/13 04:13:38;;;;;;;0.20;0.20;;;;;;;-1.20;73.52;101415.22;5046455;28;20045;-83
2022/03/13 04:16:12;;;;;;;0.10;0.10;;;;;;;-1.17;67.66;101415.88;5053939;28;20055;-84
2022/03/13 04:18:45;;;;;;;0.20;0.20;;;;;;;-1.20;67.77;101423.25;5054641;28;20122;-83
2022/03/13 04:21:19;;;;;;;0.20;0.20;;;;;;;-1.24;69.35;101416.63;5053873;28;20053;-84
2022/03/13 04:23:53;;;;;;;0.20;0.20;;;;;;;-1.30;69.13;101406.66;5055025;28;20052;-84
2022/03/13 04:26:23;;;;;;;0.30;0.30;;;;;;;-1.29;67.46;101410.16;5053619;28;20045;-85
2022/03/13 04:28:56;;;;;;;0.30;0.30;;;;;;;-1.31;69.64;101423.72;5053677;28;20041;-84
2022/03/13 04:31:29;;;;;;;0.20;0.20;;;;;;;-1.32;68.28;101419.38;5053235;28;20053;-84
2022/03/13 04:34:03;;;;;;;0.20;0.20;;;;;;;-1.27;67.20;101421.47;5055326;28;20056;-84
2022/03/13 04:36:32;;;;;;;0.20;0.20;;;;;;;-1.32;69.93;101423.88;5053793;28;20045;-84
2022/03/13 04:39:07;;;;;;;0.20;0.20;;;;;;;-1.39;69.26;101419.25;5054193;28;20409;-83
2022/03/13 04:41:41;;;;;;;0.20;0.20;;;;;;;-1.42;68.81;101424.16;5049590;28;20037;-84
2022/03/13 04:44:16;;;;;;;0.20;0.20;;;;;;;-1.44;70.84;101426.97;5033622;28;20060;-84
2022/03/13 04:46:49;;;;;;;0.20;0.20;;;;;;;-1.46;71.28;101429.03;5032488;28;20068;-84
2022/03/13 04:49:17;;;;;;;0.20;0.20;;;;;;;-1.55;71.27;101436.28;5048906;28;20048;-84
2022/03/13 04:51:45;;;;;;;0.10;0.10;;;;;;;-1.58;71.50;101431.28;5036025;28;20053;-84
2022/03/13 04:54:19;;;;;;;0.20;0.20;;;;;;;-1.60;75.41;101436.00;5054184;28;20041;-84
2022/03/13 04:56:48;;;;;;;0.20;0.20;;;;;;;-1.71;74.46;101429.25;5046876;28;20061;-85
2022/03/13 04:59:17;;;;;;;0.20;0.20;;;;;;;-1.73;73.86;101446.44;5043776;28;20045;-83
2022/03/13 05:01:50;;;;;;;0.13;0.13;;;;;;;-1.94;76.04;101420.44;5041514;28;20150;-85
2022/03/13 05:04:23;;;;;;;0.20;0.20;;;;;;;-1.88;76.60;101444.56;5047587;28;20049;-84
2022/03/13 05:06:58;;;;;;;0.20;0.20;;;;;;;-1.93;77.96;101448.78;5039554;28;20049;-84
2022/03/13 05:09:32;;;;;;;0.20;0.20;;;;;;;-1.93;77.73;101452.25;5038894;28;20410;-85
2022/03/13 05:12:08;;;;;;;0.20;0.20;;;;;;;-1.96;81.37;101443.78;5054503;28;20045;-85
2022/03/13 05:14:36;;;;;;;0.20;0.20;;;;;;;-2.00;80.83;101459.31;5033843;28;20393;-85
2022/03/13 05:17:09;;;;;;;0.20;0.20;;;;;;;-1.99;78.56;101452.13;5042210;28;20068;-85
2022/03/13 05:19:44;;;;;;;0.15;0.15;;;;;;;-2.11;79.02;101441.06;5054486;28;20382;-84
2022/03/13 05:22:17;;;;;;;0.17;0.17;;;;;;;-2.09;78.39;101437.19;5042975;28;20045;-85
2022/03/13 05:24:46;;;;;;;0.40;0.20;;;;;;;-2.02;76.50;101455.16;5041102;28;20057;-85
2022/03/13 05:27:20;;;;;;;0.20;0.20;;;;;;;-2.00;76.55;101454.00;5042430;28;20061;-83
2022/03/13 05:29:48;;;;;;;0.13;0.13;;;;;;;-2.02;77.66;101460.50;5044757;28;20045;-85
2022/03/13 05:32:18;;;;;;;0.20;0.20;;;;;;;-2.09;81.58;101466.53;5042394;28;20405;-85
2022/03/13 05:34:51;;;;;;;0.20;0.20;;;;;;;-2.13;80.26;101465.22;5034716;28;20053;-85
2022/03/13 05:37:25;;;;;;;0.20;0.20;;;;;;;-2.12;78.99;101466.88;5034859;28;20045;-85
2022/03/13 05:39:58;;;;;;;0.20;0.20;;;;;;;-2.14;81.94;101471.59;5057790;28;20433;-84
2022/03/13 05:42:32;;;;;;;0.20;0.20;;;;;;;-2.14;82.05;101471.59;5043544;28;20056;-84
2022/03/13 05:45:07;;;;;;;0.20;0.20;;;;;;;-2.36;85.42;101454.53;5045561;28;20406;-85
2022/03/13 05:47:44;;;;;;;0.20;0.20;;;;;;;-2.21;85.01;101473.25;5055447;28;20061;-85
2022/03/13 05:50:18;;;;;;;;;;;;;;;-2.22;83.72;101472.44;5040255;28;20506;-84
2022/03/13 05:52:48;;;;;;;0.30;0.30;;;;;;;-2.15;81.59;101472.59;5055280;28;19921;-86
2022/03/13 05:55:21;;;;;;;0.20;0.20;;;;;;;-2.13;81.21;101467.06;5054485;28;20049;-84
2022/03/13 05:57:57;;;;;;;0.30;0.30;;;;;;;-2.18;81.22;101448.09;5057534;28;20437;-85
2022/03/13 06:00:32;;;;;;;0.10;0.10;;;;;;;-2.05;81.97;101472.34;5045333;28;20913;-85
2022/03/13 06:03:06;;;;;;;0.60;0.20;;;;;;;-2.07;80.30;101459.19;5046441;28;20041;-85
2022/03/13 06:05:39;;;;;;;0.20;0.20;;;;;;;-1.97;81.83;101450.97;5048701;28;20043;-85
2022/03/13 06:08:12;;;;;;;0.20;0.20;;;;;;;-1.93;78.03;101456.78;5043098;28;20605;-85
2022/03/13 06:10:45;;;;;;;0.20;0.20;;;;;;;-1.85;80.00;101454.06;5033251;28;20049;-84
2022/03/13 06:13:22;;;;;;;0.20;0.20;;;;;;;-1.85;76.38;101447.88;5034726;28;20046;-85
2022/03/13 06:15:55;;;;;;;0.28;0.28;;;;;;;-1.74;75.48;101456.28;5050612;28;20527;-84
2022/03/13 06:18:28;;;;;;;0.20;0.20;;;;;;;-1.69;75.22;101454.94;5040750;28;20516;-85
2022/03/13 06:20:56;;;;;;;0.17;0.17;;;;;;;-1.57;76.78;101453.50;5040236;28;20045;-85
2022/03/13 06:23:30;;;;;;;0.30;0.30;;;;;;;-1.54;75.89;101447.78;5054745;28;20037;-84
2022/03/13 06:26:04;;;;;;;0.20;0.20;;;;;;;-1.43;75.36;101452.69;5048534;28;20052;-85
2022/03/13 06:28:38;;;;;;;0.20;0.20;;;;;;;-1.48;72.54;101432.88;5033004;28;20041;-85
2022/03/13 06:31:14;;;;;;;0.30;0.30;;;;;;;-1.32;70.04;101447.94;5045465;28;20049;-84
2022/03/13 06:33:47;;;;;;;0.20;0.20;;;;;;;-1.22;70.08;101446.63;5045600;28;20050;-85
2022/03/13 06:36:20;;;;;;;0.20;0.20;;;;;;;-1.12;66.99;101459.75;5041798;28;20041;-85
2022/03/13 06:38:55;;;;;;;0.20;0.20;;;;;;;-1.09;65.22;101458.53;5042956;28;20139;-85
2022/03/13 06:41:28;;;;;;;0.20;0.20;;;;;;;-1.00;64.75;101454.75;5062708;28;21322;-83
2022/03/13 06:44:03;;;;;;;0.20;0.20;;;;;;;-0.88;64.61;101455.13;5046086;28;20512;-85
2022/03/13 06:46:36;;;;;;;0.20;0.20;;;;;;;-0.83;63.73;101455.38;5038820;28;20049;-85
2022/03/13 06:49:10;;;;;;;0.20;0.20;;;;;;;-0.76;64.49;101461.69;5036947;28;20493;-84
2022/03/13 06:51:43;;;;;;;0.17;0.17;;;;;;;-0.72;63.65;101454.94;5043709;28;20049;-86
2022/03/13 06:54:16;;;;;;;0.20;0.20;;;;;;;-0.61;62.61;101458.97;5041626;28;20040;-84
2022/03/13 06:56:50;;;;;;;0.25;0.25;;;;;;;-0.59;63.03;101456.94;5038655;28;20386;-85
2022/03/13 06:59:24;;;;;;;0.20;0.20;;;;;;;-0.47;60.81;101459.97;5055785;28;20053;-86
2022/03/13 07:01:57;;;;;;;0.20;0.20;;;;;;;-0.42;62.27;101456.75;5039355;28;20050;-86
2022/03/13 07:04:30;;;;;;;0.20;0.20;;;;;;;-0.36;60.58;101458.66;5048803;28;20047;-84
2022/03/13 07:07:04;;;;;;;0.20;0.20;;;;;;;-0.28;59.66;101463.88;5047688;28;20504;-86
2022/03/13 07:09:33;;;;;;;0.20;0.20;;;;;;;-0.24;59.24;101459.81;5037784;28;20041;-85
2022/03/13 07:12:11;;;;;;;0.20;0.20;;;;;;;-0.19;60.51;101464.63;5049860;28;20057;-85
2022/03/13 07:14:46;;;;;;;0.20;0.20;;;;;;;-0.10;59.05;101454.63;5042631;28;20048;-85
2022/03/13 07:17:20;;;;;;;0.20;0.20;;;;;;;-0.03;58.27;101463.53;5036621;28;20398;-84
2022/03/13 07:19:53;;;;;;;0.20;0.20;;;;;;;0.02;57.92;101463.00;5052478;28;20061;-84
2022/03/13 07:22:26;;;;;;;0.20;0.20;;;;;;;0.08;58.46;101462.22;5051616;28;20056;-85
2022/03/13 07:24:59;;;;;;;0.20;0.20;;;;;;;0.15;56.16;101463.09;5045400;28;20060;-85
2022/03/13 07:27:32;;;;;;;0.20;0.20;;;;;;;0.24;56.67;101459.28;5046383;28;20048;-86
2022/03/13 07:30:09;;;;;;;0.20;0.20;;;;;;;0.33;57.62;101459.97;5048661;28;20053;-85
2022/03/13 07:32:45;;;;;;;0.20;0.20;;;;;;;0.39;56.16;101455.69;5044321;28;20053;-87
2022/03/13 07:35:18;;;;;;;0.20;0.20;;;;;;;0.43;55.94;101463.16;5048027;28;20056;-85
2022/03/13 07:37:51;;;;;;;0.20;0.20;;;;;;;0.54;55.36;101451.09;5040520;28;20052;-85
2022/03/13 07:40:19;;;;;;;0.20;0.20;;;;;;;0.51;54.97;101432.72;5045318;28;20561;-84
2022/03/13 07:42:53;;;;;;;0.17;0.17;;;;;;;0.68;53.08;101444.81;5042499;28;20049;-86
2022/03/13 07:45:27;;;;;;;0.20;0.20;;;;;;;0.76;52.75;101451.03;5055200;28;20072;-85
2022/03/13 07:48:00;;;;;;;0.20;0.20;;;;;;;0.83;54.11;101451.94;5046489;28;20056;-84
2022/03/13 07:50:33;;;;;;;0.22;0.22;;;;;;;0.81;54.49;101441.38;5048203;28;20056;-84
2022/03/13 07:53:07;;;;;;;0.20;0.20;;;;;;;0.93;53.53;101438.19;5053317;28;20065;-83
2022/03/13 07:55:41;;;;;;;0.20;0.20;;;;;;;0.97;52.71;101431.41;5048943;28;20498;-86
2022/03/13 07:58:14;;;;;;;0.15;0.15;;;;;;;1.04;52.80;101432.25;5056072;28;20049;-85
2022/03/13 08:00:49;;;;;;;0.20;0.20;;;;;;;1.26;51.54;101438.34;5052325;28;20049;-84
2022/03/13 08:03:29;;;;;;;0.20;0.20;;;;;;;1.30;51.14;101438.78;5043446;28;20058;-79
2022/03/13 08:06:03;;;;;;;0.20;0.20;;;;;;;1.40;51.07;101433.06;5045479;28;20061;-85
2022/03/13 08:08:36;;;;;;;0.35;0.20;;;;;;;1.49;50.83;101431.81;5045610;28;20052;-89
2022/03/13 08:11:10;;;;;;;0.22;0.22;;;;;;;1.56;50.37;101429.16;5045089;28;20053;-87
2022/03/13 08:13:38;;;;;;;0.20;0.20;;;;;;;1.58;49.78;101435.19;5047583;28;20060;-85
2022/03/13 08:16:13;;;;;;;0.20;0.20;;;;;;;1.61;50.94;101432.91;5046399;28;20442;-88
2022/03/13 08:18:46;;;;;;;0.20;0.20;;;;;;;1.75;48.67;101431.09;5041236;28;20053;-88
2022/03/13 08:21:19;;;;;;;0.10;0.10;;;;;;;1.84;49.35;101439.78;5046172;28;20417;-87
2022/03/13 08:23:52;;;;;;;0.20;0.20;;;;;;;1.93;50.19;101438.56;5043133;28;20474;-84
2022/03/13 08:26:26;;;;;;;0.20;0.20;;;;;;;2.02;48.32;101437.34;5045516;28;20045;-86
2022/03/13 08:28:59;;;;;;;0.20;0.20;;;;;;;2.10;48.17;101424.75;5048068;28;20053;-87
2022/03/13 08:31:29;;;;;;;0.15;0.15;;;;;;;2.06;48.78;101418.97;5038412;28;20053;-86
2022/03/13 08:34:07;;;;;;;0.13;0.13;;;;;;;2.14;48.05;101417.94;5045178;28;20056;-86
2022/03/13 08:36:43;;;;;;;0.10;0.10;;;;;;;2.20;47.99;101417.13;5045044;28;20498;-84
2022/03/13 08:39:16;;;;;;;0.10;0.10;;;;;;;2.29;47.76;101409.69;5043062;28;20045;-87
2022/03/13 08:41:50;;;;;;;0.20;0.20;;;;;;;2.38;47.89;101414.63;5044930;28;20670;-85
2022/03/13 08:44:23;;;;;;;0.20;0.20;;;;;;;2.45;46.67;101413.81;5045049;28;20049;-85
2022/03/13 08:46:58;;;;;;;0.20;0.20;;;;;;;2.59;45.91;101414.63;5045564;28;20089;-84
2022/03/13 08:49:31;;;;;;;0.17;0.17;;;;;;;2.65;46.50;101419.16;5039398;28;20519;-84
2022/03/13 08:52:05;;;;;;;0.20;0.20;;;;;;;2.69;46.19;101409.66;5041032;28;20482;-84
2022/03/13 08:54:38;;;;;;;0.20;0.20;;;;;;;2.76;46.59;101412.34;5036508;28;20050;-84
2022/03/13 08:57:16;;;;;;;0.20;0.20;;;;;;;2.68;45.98;101394.56;5043716;28;20362;-85
2022/03/13 08:59:50;;;;;;;0.20;0.20;;;;;;;2.80;46.13;101403.63;5041643;28;20080;-85
2022/03/13 09:02:24;;;;;;;0.20;0.20;;;;;;;2.99;46.47;101415.38;5047220;28;20049;-86
2022/03/13 09:04:57;;;;;;;0.20;0.20;;;;;;;3.10;45.85;101415.78;5034346;28;20049;-84
2022/03/13 09:07:25;;;;;;;0.15;0.15;;;;;;;3.09;45.39;101409.56;5036524;28;20041;-84
2022/03/13 09:09:54;;;;;;;0.20;0.20;;;;;;;3.15;45.57;101413.25;5030353;28;20049;-83
2022/03/13 09:12:22;;;;;;;0.20;0.20;;;;;;;3.18;45.49;101420.94;5030714;28;20042;-86
2022/03/13 09:14:50;;;;;;;0.10;0.10;;;;;;;3.27;45.74;101400.78;5029951;28;20060;-85
2022/03/13 09:17:25;;;;;;;0.20;0.20;;;;;;;3.43;44.91;101418.34;5020320;28;20860;-84
2022/03/13 09:19:53;;;;;;;0.20;0.20;;;;;;;3.46;45.04;101411.69;5023275;28;20061;-83
2022/03/13 09:22:30;;;;;;;0.13;0.13;;;;;;;3.48;44.03;101413.16;5019967;28;20055;-85
2022/03/13 09:25:04;;;;;;;0.10;0.10;;;;;;;3.62;44.62;101410.38;5023060;28;20826;-82
2022/03/13 09:27:37;;;;;;;0.20;0.20;;;;;;;3.61;43.99;101408.72;5028663;28;20072;-85
2022/03/13 09:30:12;;;;;;;0.20;0.20;;;;;;;3.67;43.71;101408.66;5022523;28;20494;-85
2022/03/13 09:32:50;;;;;;;0.20;0.20;;;;;;;3.83;43.78;101403.84;5025198;28;20060;-83
2022/03/13 09:35:18;;;;;;;0.20;0.20;;;;;;;3.87;43.11;101408.56;5024803;28;20100;-83
2022/03/13 09:37:52;;;;;;;0.20;0.20;;;;;;;3.87;43.17;101378.13;5036058;28;20068;-84
2022/03/13 09:40:20;;;;;;;0.30;0.30;;;;;;;4.12;43.01;101399.69;5018267;28;20064;-82
2022/03/13 09:42:54;;;;;;;0.20;0.20;;;;;;;4.24;43.28;101407.91;5020346;28;20067;-85
2022/03/13 09:45:29;;;;;;;0.20;0.20;;;;;;;4.24;43.30;101397.94;5021742;28;20057;-83
2022/03/13 09:48:08;;;;;;;0.20;0.20;;;;;;;4.30;42.29;101393.53;5028777;28;20694;-84
2022/03/13 09:50:41;;;;;;;0.20;0.20;;;;;;;4.41;43.92;101400.09;5025023;28;20045;-82
2022/03/13 09:53:27;;;;;;;0.20;0.20;;;;;;;4.66;43.07;101402.75;5026866;28;20060;-83
2022/03/13 09:56:03;;;;;;;0.20;0.20;;;;;;;4.71;40.91;101397.53;5023949;28;20052;-83
2022/03/13 09:58:36;;;;;;;0.35;0.20;;;;;;;4.91;40.09;101396.47;5016323;28;20085;-86
2022/03/13 10:01:09;;;;;;;0.20;0.20;;;;;;;4.97;39.85;101389.38;5017516;28;20060;-82
2022/03/13 10:03:44;;;;;;;0.20;0.20;;;;;;;5.22;39.44;101398.22;5017355;28;20394;-85
2022/03/13 10:06:17;;;;;;;0.20;0.20;;;;;;;5.21;38.75;101395.75;5025751;28;20064;-82
2022/03/13 10:08:50;;;;;;;0.20;0.20;;;;;;;5.27;39.15;101392.13;5015230;28;20072;-83
2022/03/13 10:11:33;;;;;;;0.20;0.20;;;;;;;5.26;38.82;101404.81;5025589;28;20045;-83
2022/03/13 10:14:07;;;;;;;0.20;0.20;;;;;;;5.41;38.79;101393.63;5014313;28;20053;-83
2022/03/13 10:16:41;;;;;;;0.10;0.10;;;;;;;5.43;37.13;101388.00;5018854;28;20049;-82
2022/03/13 10:19:17;;;;;;;0.20;0.20;;;;;;;5.36;38.23;101385.38;5018238;28;20747;-82
2022/03/13 10:22:03;;;;;;;0.20;0.20;;;;;;;5.44;39.28;101382.34;5017447;28;20061;-82
2022/03/13 10:24:41;;;;;;;0.20;0.20;;;;;;;5.57;38.61;101378.63;5020804;28;20417;-83
2022/03/13 10:27:16;;;;;;;0.20;0.20;;;;;;;5.69;38.27;101388.66;5014211;28;20410;-82
2022/03/13 10:29:49;;;;;;;0.10;0.10;;;;;;;5.68;38.20;101376.22;5016565;28;20145;-83
2022/03/13 10:32:22;;;;;;;0.20;0.20;;;;;;;5.85;36.79;101390.69;5016036;28;20061;-82
2022/03/13 10:34:58;;;;;;;0.10;0.10;;;;;;;5.83;37.84;101392.81;5030250;28;20064;-83
2022/03/13 10:37:37;;;;;;;0.10;0.10;;;;;;;5.33;36.79;101306.72;5013260;28;20060;-82
2022/03/13 10:40:22;;;;;;;0.20;0.20;;;;;;;5.72;36.78;101375.53;5013038;28;20956;-82
2022/03/13 10:42:58;;;;;;;0.20;0.20;;;;;;;5.81;36.87;101375.19;5016309;28;20104;-83
2022/03/13 10:45:36;;;;;;;0.20;0.20;;;;;;;5.78;36.98;101368.38;5014122;28;20905;-82
2022/03/13 10:48:28;;;;;;;0.20;0.20;;;;;;;5.90;36.91;101373.81;5017637;28;20049;-83
2022/03/13 10:51:04;;;;;;;0.20;0.20;;;;;;;5.96;36.87;101375.59;5018819;28;20057;-82
2022/03/13 10:53:40;;;;;;;0.10;0.10;;;;;;;5.95;36.06;101374.78;5027353;28;20053;-83
2022/03/13 10:56:10;;;;;;;0.20;0.20;;;;;;;6.03;37.47;101379.03;5022533;28;20056;-82
2022/03/13 10:58:47;;;;;;;0.20;0.20;;;;;;;6.27;37.82;101368.25;5022772;28;20056;-82
2022/03/13 11:01:23;;;;;;;0.20;0.20;;;;;;;6.28;37.28;101372.59;5011968;28;20064;-84
2022/03/13 11:03:53;;;;;;;0.20;0.20;;;;;;;6.27;36.23;101370.94;5019093;28;20756;-82
2022/03/13 11:06:24;;;;;;;0.20;0.20;;;;;;;6.39;37.14;101369.06;5013455;28;20056;-82
2022/03/13 11:08:57;;;;;;;0.20;0.20;;;;;;;6.40;36.78;101367.22;5037721;28;20065;-84
2022/03/13 11:11:32;;;;;;;0.20;0.20;;;;;;;6.48;35.62;101364.16;5014723;28;20449;-85
2022/03/13 11:14:06;;;;;;;0.20;0.20;;;;;;;6.53;36.16;101358.03;5016553;28;20057;-81
2022/03/13 11:16:39;;;;;;;0.20;0.20;;;;;;;6.69;37.16;101364.63;5017046;28;20481;-81
2022/03/13 11:19:12;;;;;;;0.10;0.10;;;;;;;6.73;37.24;101344.16;5009574;28;20061;-80
2022/03/13 11:21:43;;;;;;;0.20;0.20;;;;;;;6.78;37.38;101342.38;5011955;28;20497;-81
2022/03/13 11:24:17;;;;;;;0.10;0.10;;;;;;;6.95;37.11;101339.75;5011855;28;20053;-80
2022/03/13 11:26:51;;;;;;;0.20;0.20;;;;;;;6.94;35.13;101362.44;5003321;28;20062;-79
2022/03/13 11:29:40;;;;;;;0.20;0.20;;;;;;;6.97;35.76;101359.28;5030350;28;20057;-81
2022/03/13 11:32:33;;;;;;;0.20;0.20;;;;;;;7.09;37.48;101367.34;5011034;28;20057;-81
2022/03/13 11:35:21;;;;;;;0.30;0.30;;;;;;;7.30;35.66;101360.47;5023713;28;20046;-81
2022/03/13 11:38:16;;;;;;;0.20;0.20;;;;;;;7.43;34.94;101351.25;5012710;28;21408;-80
2022/03/13 11:40:50;;;;;;;0.20;0.20;;;;;;;7.38;36.27;101353.84;5013621;28;20056;-80
2022/03/13 11:43:23;;;;;;;0.20;0.20;;;;;;;7.39;33.84;101344.66;5020010;28;20049;-81
2022/03/13 11:45:54;;;;;;;0.20;0.20;;;;;;;7.28;35.28;101343.66;5031277;28;20061;-81
2022/03/13 11:48:40;;;;;;;0.20;0.20;;;;;;;7.37;35.58;101341.38;5020529;28;20049;-80
2022/03/13 11:51:29;;;;;;;0.20;0.20;;;;;;;7.52;36.48;101334.59;5029905;28;20061;-80
2022/03/13 11:54:00;;;;;;;0.28;0.20;;;;;;;7.83;35.88;101330.56;5016225;28;20068;-81
2022/03/13 11:56:30;;;;;;;0.20;0.20;;;;;;;7.68;36.44;101317.56;5022533;28;20057;-80
2022/03/13 11:59:00;;;;;;;0.20;0.20;;;;;;;7.80;34.41;101312.88;5031212;28;20061;-81